KECG/ECG METAR and TAF weather

Enter ICAO airport designator
Station Type Date Time Source
KECG METAR 2018/01/22 19:54 UTC NOAA

KECG 221954Z 11006KT 10SM CLR 16/12 A3013 RMK AO2 SLP203 T01560122


Station Type Date Time Source
KECG Decoded METAR 2018/01/22 19:54 UTC NOAA

ELIZABETH CITY C/G REGN AIRPORT , NC, United States (KECG) 36-15N 076-10W 11M
Jan 22, 2018 - 02:54 PM EST / 2018.01.22 1954 UTC
Wind: from the ESE (110 degrees) at 7 MPH (6 KT):0
Visibility: 10 mile(s):0
Sky conditions: clear
Temperature: 60.1 F (15.6 C)
Dew Point: 54.0 F (12.2 C)
Relative Humidity: 80%
Pressure (altimeter): 30.13 in. Hg (1020 hPa)
ob: KECG 221954Z 11006KT 10SM CLR 16/12 A3013 RMK AO2 SLP203 T01560122
cycle: 20

Station Type Date Time Source
KECG TAF 2018/01/22 18:51 UTC NOAA

TAF KECG 221748Z 2218/2318 20008KT P6SM SCT090 BKN250
FM222100 17007KT P6SM BKN250
FM230400 18007KT P6SM BKN090
FM230800 17011KT P6SM BKN025
FM231300 20016G25KT 5SM -SHRA BR OVC010


Example: see airport list